sensor_id;sensor_type;location;lat;lon;timestamp;P1;durP1;ratioP1;P2;durP2;ratioP2
52102;SDS011;38101;53.126;6.878;2023-05-10T00:00:39;10.35;;;8.90;;
52102;SDS011;38101;53.126;6.878;2023-05-10T00:03:05;11.98;;;9.27;;
52102;SDS011;38101;53.126;6.878;2023-05-10T00:05:31;10.55;;;9.00;;
52102;SDS011;38101;53.126;6.878;2023-05-10T00:07:57;10.98;;;9.65;;
52102;SDS011;38101;53.126;6.878;2023-05-10T00:10:22;11.52;;;9.50;;
52102;SDS011;38101;53.126;6.878;2023-05-10T00:12:48;7.53;;;6.70;;
52102;SDS011;38101;53.126;6.878;2023-05-10T00:15:14;5.55;;;4.70;;
52102;SDS011;38101;53.126;6.878;2023-05-10T00:17:39;5.75;;;4.05;;
52102;SDS011;38101;53.126;6.878;2023-05-10T00:20:05;9.48;;;3.40;;
52102;SDS011;38101;53.126;6.878;2023-05-10T00:22:31;4.70;;;3.60;;
52102;SDS011;38101;53.126;6.878;2023-05-10T00:24:57;4.75;;;3.45;;
52102;SDS011;38101;53.126;6.878;2023-05-10T00:27:23;5.38;;;4.07;;
52102;SDS011;38101;53.126;6.878;2023-05-10T00:29:49;6.00;;;4.28;;
52102;SDS011;38101;53.126;6.878;2023-05-10T00:32:15;7.20;;;5.10;;
52102;SDS011;38101;53.126;6.878;2023-05-10T00:34:41;9.02;;;5.28;;
52102;SDS011;38101;53.126;6.878;2023-05-10T00:37:07;6.68;;;5.97;;
52102;SDS011;38101;53.126;6.878;2023-05-10T00:39:32;6.57;;;5.75;;
52102;SDS011;38101;53.126;6.878;2023-05-10T00:41:58;8.05;;;6.80;;
52102;SDS011;38101;53.126;6.878;2023-05-10T00:44:25;8.50;;;6.38;;
52102;SDS011;38101;53.126;6.878;2023-05-10T00:46:51;7.07;;;6.38;;
52102;SDS011;38101;53.126;6.878;2023-05-10T00:49:17;7.97;;;6.80;;
52102;SDS011;38101;53.126;6.878;2023-05-10T00:51:43;9.27;;;6.82;;
52102;SDS011;38101;53.126;6.878;2023-05-10T00:54:10;9.07;;;6.88;;
52102;SDS011;38101;53.126;6.878;2023-05-10T00:56:38;7.82;;;6.70;;
52102;SDS011;38101;53.126;6.878;2023-05-10T00:59:05;7.65;;;6.32;;
52102;SDS011;38101;53.126;6.878;2023-05-10T01:01:31;10.10;;;7.05;;
52102;SDS011;38101;53.126;6.878;2023-05-10T01:03:57;9.63;;;6.78;;
52102;SDS011;38101;53.126;6.878;2023-05-10T01:06:23;7.80;;;6.47;;
52102;SDS011;38101;53.126;6.878;2023-05-10T01:08:49;8.38;;;6.43;;
52102;SDS011;38101;53.126;6.878;2023-05-10T01:11:15;8.45;;;7.18;;
52102;SDS011;38101;53.126;6.878;2023-05-10T01:13:41;8.05;;;6.78;;
52102;SDS011;38101;53.126;6.878;2023-05-10T01:16:08;7.80;;;6.68;;
52102;SDS011;38101;53.126;6.878;2023-05-10T01:18:38;8.77;;;6.93;;
52102;SDS011;38101;53.126;6.878;2023-05-10T01:29:47;9.70;;;6.53;;
52102;SDS011;38101;53.126;6.878;2023-05-10T01:35:26;8.80;;;6.68;;
52102;SDS011;38101;53.126;6.878;2023-05-10T01:40:38;8.23;;;6.85;;
52102;SDS011;38101;53.126;6.878;2023-05-10T01:43:15;7.75;;;6.30;;
52102;SDS011;38101;53.126;6.878;2023-05-10T01:48:17;7.85;;;6.47;;
52102;SDS011;38101;53.126;6.878;2023-05-10T01:50:45;9.60;;;7.43;;
52102;SDS011;38101;53.126;6.878;2023-05-10T01:53:12;8.23;;;6.97;;
52102;SDS011;38101;53.126;6.878;2023-05-10T01:55:43;8.95;;;7.20;;
52102;SDS011;38101;53.126;6.878;2023-05-10T01:58:13;11.70;;;7.72;;
52102;SDS011;38101;53.126;6.878;2023-05-10T02:00:43;9.77;;;7.57;;
52102;SDS011;38101;53.126;6.878;2023-05-10T02:03:11;8.43;;;6.70;;
52102;SDS011;38101;53.126;6.878;2023-05-10T02:05:38;10.23;;;7.05;;
52102;SDS011;38101;53.126;6.878;2023-05-10T02:08:06;8.85;;;6.63;;
52102;SDS011;38101;53.126;6.878;2023-05-10T02:10:36;9.00;;;6.97;;
52102;SDS011;38101;53.126;6.878;2023-05-10T02:13:04;8.23;;;6.75;;
52102;SDS011;38101;53.126;6.878;2023-05-10T02:15:31;8.60;;;6.75;;
52102;SDS011;38101;53.126;6.878;2023-05-10T02:17:58;8.48;;;7.05;;
52102;SDS011;38101;53.126;6.878;2023-05-10T02:20:27;9.50;;;6.72;;
52102;SDS011;38101;53.126;6.878;2023-05-10T02:22:54;8.55;;;6.88;;
52102;SDS011;38101;53.126;6.878;2023-05-10T02:25:21;9.25;;;7.03;;
52102;SDS011;38101;53.126;6.878;2023-05-10T02:27:48;8.68;;;7.32;;
52102;SDS011;38101;53.126;6.878;2023-05-10T02:30:15;8.07;;;6.65;;
52102;SDS011;38101;53.126;6.878;2023-05-10T02:32:42;9.10;;;7.28;;
52102;SDS011;38101;53.126;6.878;2023-05-10T02:35:10;8.40;;;6.68;;
52102;SDS011;38101;53.126;6.878;2023-05-10T02:37:37;8.50;;;6.95;;
52102;SDS011;38101;53.126;6.878;2023-05-10T02:40:05;9.55;;;7.45;;
52102;SDS011;38101;53.126;6.878;2023-05-10T02:42:33;7.75;;;6.65;;
52102;SDS011;38101;53.126;6.878;2023-05-10T02:45:02;8.48;;;6.93;;
52102;SDS011;38101;53.126;6.878;2023-05-10T02:47:33;8.80;;;7.00;;
52102;SDS011;38101;53.126;6.878;2023-05-10T02:49:59;8.98;;;6.90;;
52102;SDS011;38101;53.126;6.878;2023-05-10T02:52:28;8.52;;;7.18;;
52102;SDS011;38101;53.126;6.878;2023-05-10T02:54:58;8.00;;;6.55;;
52102;SDS011;38101;53.126;6.878;2023-05-10T02:57:28;7.63;;;5.78;;
52102;SDS011;38101;53.126;6.878;2023-05-10T02:59:58;7.50;;;6.20;;
52102;SDS011;38101;53.126;6.878;2023-05-10T03:02:25;7.50;;;6.45;;
52102;SDS011;38101;53.126;6.878;2023-05-10T03:04:51;8.43;;;6.20;;
52102;SDS011;38101;53.126;6.878;2023-05-10T03:07:17;9.23;;;7.13;;
52102;SDS011;38101;53.126;6.878;2023-05-10T03:09:46;9.60;;;7.38;;
52102;SDS011;38101;53.126;6.878;2023-05-10T03:17:47;9.90;;;7.68;;
52102;SDS011;38101;53.126;6.878;2023-05-10T03:20:47;8.63;;;7.30;;
52102;SDS011;38101;53.126;6.878;2023-05-10T03:25:53;8.77;;;7.32;;
52102;SDS011;38101;53.126;6.878;2023-05-10T03:28:20;9.38;;;7.35;;
52102;SDS011;38101;53.126;6.878;2023-05-10T03:30:47;10.15;;;7.53;;
52102;SDS011;38101;53.126;6.878;2023-05-10T03:33:12;10.27;;;8.23;;
52102;SDS011;38101;53.126;6.878;2023-05-10T03:35:39;9.10;;;7.40;;
52102;SDS011;38101;53.126;6.878;2023-05-10T03:38:04;9.55;;;8.10;;
52102;SDS011;38101;53.126;6.878;2023-05-10T03:40:30;10.40;;;8.05;;
52102;SDS011;38101;53.126;6.878;2023-05-10T03:43:00;10.13;;;8.30;;
52102;SDS011;38101;53.126;6.878;2023-05-10T03:45:26;9.52;;;7.70;;
52102;SDS011;38101;53.126;6.878;2023-05-10T03:47:51;11.20;;;8.45;;
52102;SDS011;38101;53.126;6.878;2023-05-10T03:50:17;11.85;;;9.02;;
52102;SDS011;38101;53.126;6.878;2023-05-10T03:52:43;10.57;;;8.70;;
52102;SDS011;38101;53.126;6.878;2023-05-10T03:55:09;13.52;;;9.48;;
52102;SDS011;38101;53.126;6.878;2023-05-10T03:57:35;11.10;;;9.13;;
52102;SDS011;38101;53.126;6.878;2023-05-10T04:00:01;12.27;;;9.18;;
52102;SDS011;38101;53.126;6.878;2023-05-10T04:02:28;12.80;;;9.00;;
52102;SDS011;38101;53.126;6.878;2023-05-10T04:04:55;13.77;;;10.10;;
52102;SDS011;38101;53.126;6.878;2023-05-10T04:07:21;11.90;;;9.60;;
52102;SDS011;38101;53.126;6.878;2023-05-10T04:09:47;13.35;;;9.95;;
52102;SDS011;38101;53.126;6.878;2023-05-10T04:12:13;13.52;;;10.00;;
52102;SDS011;38101;53.126;6.878;2023-05-10T04:14:38;14.75;;;10.40;;
52102;SDS011;38101;53.126;6.878;2023-05-10T04:17:04;15.05;;;10.57;;
52102;SDS011;38101;53.126;6.878;2023-05-10T04:19:30;13.73;;;9.90;;
52102;SDS011;38101;53.126;6.878;2023-05-10T04:21:57;14.32;;;9.30;;
52102;SDS011;38101;53.126;6.878;2023-05-10T04:24:23;13.85;;;10.32;;
52102;SDS011;38101;53.126;6.878;2023-05-10T04:26:48;14.70;;;10.57;;
52102;SDS011;38101;53.126;6.878;2023-05-10T04:29:14;14.60;;;10.70;;
52102;SDS011;38101;53.126;6.878;2023-05-10T04:31:40;15.70;;;10.18;;
52102;SDS011;38101;53.126;6.878;2023-05-10T04:34:06;13.15;;;9.38;;
52102;SDS011;38101;53.126;6.878;2023-05-10T04:36:32;12.95;;;9.77;;
52102;SDS011;38101;53.126;6.878;2023-05-10T04:39:00;16.45;;;10.30;;
52102;SDS011;38101;53.126;6.878;2023-05-10T04:41:27;12.75;;;9.35;;
52102;SDS011;38101;53.126;6.878;2023-05-10T04:43:53;12.95;;;9.48;;
52102;SDS011;38101;53.126;6.878;2023-05-10T04:46:19;14.27;;;9.68;;
52102;SDS011;38101;53.126;6.878;2023-05-10T04:48:45;13.48;;;9.23;;
52102;SDS011;38101;53.126;6.878;2023-05-10T04:51:11;10.10;;;8.30;;
52102;SDS011;38101;53.126;6.878;2023-05-10T04:53:37;10.73;;;8.73;;
52102;SDS011;38101;53.126;6.878;2023-05-10T04:56:03;13.98;;;8.68;;
52102;SDS011;38101;53.126;6.878;2023-05-10T04:58:29;11.63;;;8.13;;
52102;SDS011;38101;53.126;6.878;2023-05-10T05:00:55;11.30;;;8.35;;
52102;SDS011;38101;53.126;6.878;2023-05-10T05:03:20;12.18;;;8.60;;
52102;SDS011;38101;53.126;6.878;2023-05-10T05:05:47;10.45;;;7.47;;
52102;SDS011;38101;53.126;6.878;2023-05-10T05:08:12;9.73;;;7.10;;
52102;SDS011;38101;53.126;6.878;2023-05-10T05:10:38;9.02;;;7.50;;
52102;SDS011;38101;53.126;6.878;2023-05-10T05:13:04;8.80;;;7.15;;
52102;SDS011;38101;53.126;6.878;2023-05-10T05:15:30;9.75;;;7.85;;
52102;SDS011;38101;53.126;6.878;2023-05-10T05:17:56;9.20;;;7.10;;
52102;SDS011;38101;53.126;6.878;2023-05-10T05:20:22;9.15;;;7.57;;
52102;SDS011;38101;53.126;6.878;2023-05-10T05:22:47;10.55;;;7.78;;
52102;SDS011;38101;53.126;6.878;2023-05-10T05:25:13;9.20;;;8.10;;
52102;SDS011;38101;53.126;6.878;2023-05-10T05:27:40;9.13;;;7.55;;
52102;SDS011;38101;53.126;6.878;2023-05-10T05:30:06;9.50;;;7.30;;
52102;SDS011;38101;53.126;6.878;2023-05-10T05:32:32;9.02;;;7.07;;
52102;SDS011;38101;53.126;6.878;2023-05-10T05:34:58;9.18;;;6.72;;
52102;SDS011;38101;53.126;6.878;2023-05-10T05:37:24;8.55;;;7.20;;
52102;SDS011;38101;53.126;6.878;2023-05-10T05:39:50;8.80;;;6.70;;
52102;SDS011;38101;53.126;6.878;2023-05-10T05:42:15;7.28;;;6.38;;
52102;SDS011;38101;53.126;6.878;2023-05-10T05:44:43;8.38;;;6.40;;
52102;SDS011;38101;53.126;6.878;2023-05-10T05:47:09;6.80;;;5.70;;
52102;SDS011;38101;53.126;6.878;2023-05-10T05:49:35;6.32;;;5.20;;
52102;SDS011;38101;53.126;6.878;2023-05-10T05:52:01;6.38;;;4.82;;
52102;SDS011;38101;53.126;6.878;2023-05-10T05:54:28;6.28;;;5.55;;
52102;SDS011;38101;53.126;6.878;2023-05-10T05:56:56;5.60;;;4.53;;
52102;SDS011;38101;53.126;6.878;2023-05-10T05:59:22;5.40;;;4.35;;
52102;SDS011;38101;53.126;6.878;2023-05-10T06:01:49;6.60;;;5.10;;
52102;SDS011;38101;53.126;6.878;2023-05-10T06:04:15;6.18;;;5.18;;
52102;SDS011;38101;53.126;6.878;2023-05-10T06:06:41;5.97;;;4.68;;
52102;SDS011;38101;53.126;6.878;2023-05-10T06:09:07;4.35;;;3.42;;
52102;SDS011;38101;53.126;6.878;2023-05-10T06:11:33;4.00;;;3.00;;
52102;SDS011;38101;53.126;6.878;2023-05-10T06:14:00;4.43;;;2.55;;
52102;SDS011;38101;53.126;6.878;2023-05-10T06:16:26;3.50;;;2.50;;
52102;SDS011;38101;53.126;6.878;2023-05-10T06:18:53;4.45;;;2.58;;
52102;SDS011;38101;53.126;6.878;2023-05-10T06:21:18;3.33;;;2.47;;
52102;SDS011;38101;53.126;6.878;2023-05-10T06:23:44;4.03;;;3.10;;
52102;SDS011;38101;53.126;6.878;2023-05-10T06:26:10;3.75;;;2.80;;
52102;SDS011;38101;53.126;6.878;2023-05-10T06:28:37;4.53;;;3.03;;
52102;SDS011;38101;53.126;6.878;2023-05-10T06:31:04;3.50;;;2.60;;
52102;SDS011;38101;53.126;6.878;2023-05-10T06:33:30;3.55;;;2.58;;
52102;SDS011;38101;53.126;6.878;2023-05-10T06:35:56;3.92;;;2.58;;
52102;SDS011;38101;53.126;6.878;2023-05-10T06:38:22;3.15;;;2.35;;
52102;SDS011;38101;53.126;6.878;2023-05-10T06:40:48;3.72;;;2.50;;
52102;SDS011;38101;53.126;6.878;2023-05-10T06:43:14;2.83;;;2.22;;
52102;SDS011;38101;53.126;6.878;2023-05-10T06:45:40;2.28;;;1.80;;
52102;SDS011;38101;53.126;6.878;2023-05-10T06:48:06;2.10;;;1.70;;
52102;SDS011;38101;53.126;6.878;2023-05-10T06:50:32;2.80;;;1.92;;
52102;SDS011;38101;53.126;6.878;2023-05-10T06:52:58;3.50;;;1.90;;
52102;SDS011;38101;53.126;6.878;2023-05-10T06:55:25;2.88;;;2.03;;
52102;SDS011;38101;53.126;6.878;2023-05-10T06:57:51;3.50;;;2.38;;
52102;SDS011;38101;53.126;6.878;2023-05-10T07:00:18;3.70;;;2.72;;
52102;SDS011;38101;53.126;6.878;2023-05-10T07:02:45;4.32;;;3.20;;
52102;SDS011;38101;53.126;6.878;2023-05-10T07:05:12;4.68;;;3.28;;
52102;SDS011;38101;53.126;6.878;2023-05-10T07:07:38;4.40;;;2.88;;
52102;SDS011;38101;53.126;6.878;2023-05-10T07:10:04;3.45;;;2.42;;
52102;SDS011;38101;53.126;6.878;2023-05-10T07:12:31;3.35;;;2.13;;
52102;SDS011;38101;53.126;6.878;2023-05-10T07:14:57;3.85;;;2.25;;
52102;SDS011;38101;53.126;6.878;2023-05-10T07:17:22;5.47;;;3.63;;
52102;SDS011;38101;53.126;6.878;2023-05-10T07:19:48;4.45;;;3.10;;
52102;SDS011;38101;53.126;6.878;2023-05-10T07:22:15;5.22;;;3.72;;
52102;SDS011;38101;53.126;6.878;2023-05-10T07:24:41;4.13;;;2.58;;
52102;SDS011;38101;53.126;6.878;2023-05-10T07:27:07;3.70;;;2.50;;
52102;SDS011;38101;53.126;6.878;2023-05-10T07:29:34;4.32;;;2.88;;
52102;SDS011;38101;53.126;6.878;2023-05-10T07:32:00;5.18;;;3.50;;
52102;SDS011;38101;53.126;6.878;2023-05-10T07:34:26;6.32;;;3.70;;
52102;SDS011;38101;53.126;6.878;2023-05-10T07:36:52;5.97;;;4.00;;
52102;SDS011;38101;53.126;6.878;2023-05-10T07:39:19;6.43;;;4.43;;
52102;SDS011;38101;53.126;6.878;2023-05-10T07:41:47;6.68;;;4.35;;
52102;SDS011;38101;53.126;6.878;2023-05-10T07:44:13;6.28;;;4.15;;
52102;SDS011;38101;53.126;6.878;2023-05-10T07:46:39;5.93;;;4.72;;
52102;SDS011;38101;53.126;6.878;2023-05-10T07:49:05;5.07;;;3.83;;
52102;SDS011;38101;53.126;6.878;2023-05-10T07:51:31;4.05;;;3.03;;
52102;SDS011;38101;53.126;6.878;2023-05-10T07:53:56;4.43;;;3.10;;
52102;SDS011;38101;53.126;6.878;2023-05-10T07:56:26;4.15;;;2.70;;
52102;SDS011;38101;53.126;6.878;2023-05-10T07:59:03;3.90;;;2.85;;
52102;SDS011;38101;53.126;6.878;2023-05-10T08:01:31;4.82;;;3.10;;
52102;SDS011;38101;53.126;6.878;2023-05-10T08:03:57;4.25;;;2.80;;
52102;SDS011;38101;53.126;6.878;2023-05-10T08:06:23;4.43;;;3.10;;
52102;SDS011;38101;53.126;6.878;2023-05-10T08:08:51;4.25;;;3.00;;
52102;SDS011;38101;53.126;6.878;2023-05-10T08:11:18;4.00;;;2.85;;
52102;SDS011;38101;53.126;6.878;2023-05-10T08:13:45;4.18;;;3.00;;
52102;SDS011;38101;53.126;6.878;2023-05-10T08:16:12;3.83;;;2.97;;
52102;SDS011;38101;53.126;6.878;2023-05-10T08:18:38;3.88;;;2.92;;
52102;SDS011;38101;53.126;6.878;2023-05-10T08:21:04;4.05;;;2.95;;
52102;SDS011;38101;53.126;6.878;2023-05-10T08:23:30;5.28;;;3.20;;
52102;SDS011;38101;53.126;6.878;2023-05-10T08:25:56;4.50;;;3.10;;
52102;SDS011;38101;53.126;6.878;2023-05-10T08:28:22;3.83;;;2.97;;
52102;SDS011;38101;53.126;6.878;2023-05-10T08:30:49;5.10;;;3.40;;
52102;SDS011;38101;53.126;6.878;2023-05-10T08:33:15;3.95;;;3.15;;
52102;SDS011;38101;53.126;6.878;2023-05-10T08:35:41;3.53;;;2.88;;
52102;SDS011;38101;53.126;6.878;2023-05-10T08:38:06;3.95;;;3.17;;
52102;SDS011;38101;53.126;6.878;2023-05-10T08:40:32;4.18;;;2.80;;
52102;SDS011;38101;53.126;6.878;2023-05-10T08:43:05;4.18;;;3.10;;
52102;SDS011;38101;53.126;6.878;2023-05-10T08:45:40;3.83;;;3.20;;
52102;SDS011;38101;53.126;6.878;2023-05-10T08:48:07;4.43;;;3.33;;
52102;SDS011;38101;53.126;6.878;2023-05-10T08:50:38;3.83;;;3.15;;
52102;SDS011;38101;53.126;6.878;2023-05-10T08:53:12;4.13;;;3.38;;
52102;SDS011;38101;53.126;6.878;2023-05-10T08:58:07;5.32;;;3.67;;
52102;SDS011;38101;53.126;6.878;2023-05-10T09:00:33;5.88;;;3.90;;
52102;SDS011;38101;53.126;6.878;2023-05-10T09:03:00;5.40;;;4.03;;
52102;SDS011;38101;53.126;6.878;2023-05-10T09:05:26;5.10;;;4.13;;
52102;SDS011;38101;53.126;6.878;2023-05-10T09:07:52;5.50;;;4.25;;
52102;SDS011;38101;53.126;6.878;2023-05-10T09:10:18;4.57;;;3.92;;
52102;SDS011;38101;53.126;6.878;2023-05-10T09:12:45;5.70;;;4.30;;
52102;SDS011;38101;53.126;6.878;2023-05-10T09:15:11;6.60;;;5.22;;
52102;SDS011;38101;53.126;6.878;2023-05-10T09:17:39;6.57;;;4.47;;
52102;SDS011;38101;53.126;6.878;2023-05-10T09:20:06;6.40;;;4.90;;
52102;SDS011;38101;53.126;6.878;2023-05-10T09:22:32;6.18;;;4.70;;
52102;SDS011;38101;53.126;6.878;2023-05-10T09:27:30;7.30;;;5.43;;
52102;SDS011;38101;53.126;6.878;2023-05-10T09:29:56;5.93;;;5.00;;
52102;SDS011;38101;53.126;6.878;2023-05-10T09:32:36;7.32;;;5.72;;
52102;SDS011;38101;53.126;6.878;2023-05-10T09:35:10;6.95;;;4.72;;
52102;SDS011;38101;53.126;6.878;2023-05-10T09:37:38;7.38;;;4.93;;
52102;SDS011;38101;53.126;6.878;2023-05-10T09:40:12;6.35;;;5.32;;
52102;SDS011;38101;53.126;6.878;2023-05-10T09:42:50;7.75;;;5.40;;
52102;SDS011;38101;53.126;6.878;2023-05-10T09:45:18;7.82;;;5.03;;
52102;SDS011;38101;53.126;6.878;2023-05-10T09:47:44;6.18;;;5.13;;
52102;SDS011;38101;53.126;6.878;2023-05-10T09:50:10;7.43;;;5.50;;
52102;SDS011;38101;53.126;6.878;2023-05-10T09:53:19;5.82;;;5.05;;
52102;SDS011;38101;53.126;6.878;2023-05-10T09:58:10;5.70;;;4.32;;
52102;SDS011;38101;53.126;6.878;2023-05-10T10:00:37;6.32;;;4.57;;
52102;SDS011;38101;53.126;6.878;2023-05-10T10:03:05;5.20;;;4.10;;
52102;SDS011;38101;53.126;6.878;2023-05-10T10:05:32;5.10;;;4.40;;
52102;SDS011;38101;53.126;6.878;2023-05-10T10:08:00;6.70;;;4.75;;
52102;SDS011;38101;53.126;6.878;2023-05-10T10:10:28;6.93;;;5.25;;
52102;SDS011;38101;53.126;6.878;2023-05-10T10:12:55;7.95;;;4.80;;
52102;SDS011;38101;53.126;6.878;2023-05-10T10:15:21;6.40;;;4.75;;
52102;SDS011;38101;53.126;6.878;2023-05-10T10:17:48;7.25;;;5.00;;
52102;SDS011;38101;53.126;6.878;2023-05-10T10:20:15;6.32;;;4.75;;
52102;SDS011;38101;53.126;6.878;2023-05-10T10:22:41;7.63;;;5.05;;
52102;SDS011;38101;53.126;6.878;2023-05-10T10:25:09;7.85;;;5.00;;
52102;SDS011;38101;53.126;6.878;2023-05-10T10:30:41;6.00;;;4.80;;
52102;SDS011;38101;53.126;6.878;2023-05-10T10:33:27;5.82;;;4.78;;
52102;SDS011;38101;53.126;6.878;2023-05-10T10:36:33;5.55;;;4.60;;
52102;SDS011;38101;53.126;6.878;2023-05-10T10:39:08;5.90;;;4.68;;
52102;SDS011;38101;53.126;6.878;2023-05-10T10:41:35;5.10;;;4.10;;
52102;SDS011;38101;53.126;6.878;2023-05-10T10:49:34;5.82;;;4.57;;
52102;SDS011;38101;53.126;6.878;2023-05-10T10:55:10;6.75;;;4.53;;
52102;SDS011;38101;53.126;6.878;2023-05-10T10:57:53;6.55;;;4.95;;
52102;SDS011;38101;53.126;6.878;2023-05-10T11:02:59;9.40;;;5.75;;
52102;SDS011;38101;53.126;6.878;2023-05-10T11:08:27;7.50;;;5.70;;
52102;SDS011;38101;53.126;6.878;2023-05-10T11:16:26;6.80;;;5.28;;
52102;SDS011;38101;53.126;6.878;2023-05-10T11:19:04;7.60;;;5.40;;
52102;SDS011;38101;53.126;6.878;2023-05-10T11:21:44;7.05;;;5.55;;
52102;SDS011;38101;53.126;6.878;2023-05-10T11:24:13;7.50;;;5.85;;
52102;SDS011;38101;53.126;6.878;2023-05-10T11:26:43;8.52;;;5.57;;
52102;SDS011;38101;53.126;6.878;2023-05-10T11:29:09;7.55;;;6.20;;
52102;SDS011;38101;53.126;6.878;2023-05-10T11:31:35;8.25;;;5.90;;
52102;SDS011;38101;53.126;6.878;2023-05-10T11:34:08;8.37;;;6.23;;
52102;SDS011;38101;53.126;6.878;2023-05-10T11:36:35;7.57;;;5.75;;
52102;SDS011;38101;53.126;6.878;2023-05-10T11:39:01;7.95;;;6.05;;
52102;SDS011;38101;53.126;6.878;2023-05-10T11:41:28;8.00;;;5.95;;
52102;SDS011;38101;53.126;6.878;2023-05-10T11:43:55;8.05;;;6.28;;
52102;SDS011;38101;53.126;6.878;2023-05-10T11:46:22;10.52;;;6.15;;
52102;SDS011;38101;53.126;6.878;2023-05-10T11:48:51;7.15;;;5.82;;
52102;SDS011;38101;53.126;6.878;2023-05-10T11:51:21;8.30;;;6.28;;
52102;SDS011;38101;53.126;6.878;2023-05-10T11:53:49;7.03;;;5.82;;
52102;SDS011;38101;53.126;6.878;2023-05-10T11:56:17;7.55;;;5.78;;
52102;SDS011;38101;53.126;6.878;2023-05-10T11:58:43;8.50;;;6.10;;
52102;SDS011;38101;53.126;6.878;2023-05-10T12:01:09;6.82;;;6.07;;
52102;SDS011;38101;53.126;6.878;2023-05-10T12:03:35;7.88;;;6.13;;
52102;SDS011;38101;53.126;6.878;2023-05-10T12:06:02;8.23;;;5.95;;
52102;SDS011;38101;53.126;6.878;2023-05-10T12:08:29;8.10;;;5.95;;
52102;SDS011;38101;53.126;6.878;2023-05-10T12:11:08;7.80;;;5.70;;
52102;SDS011;38101;53.126;6.878;2023-05-10T12:13:39;9.70;;;6.03;;
52102;SDS011;38101;53.126;6.878;2023-05-10T12:16:15;9.20;;;6.68;;
52102;SDS011;38101;53.126;6.878;2023-05-10T12:18:42;7.97;;;6.10;;
52102;SDS011;38101;53.126;6.878;2023-05-10T12:21:09;8.55;;;6.50;;
52102;SDS011;38101;53.126;6.878;2023-05-10T12:23:36;8.02;;;6.45;;
52102;SDS011;38101;53.126;6.878;2023-05-10T12:26:03;8.20;;;6.47;;
52102;SDS011;38101;53.126;6.878;2023-05-10T12:28:29;7.47;;;5.55;;
52102;SDS011;38101;53.126;6.878;2023-05-10T12:30:57;8.13;;;5.82;;
52102;SDS011;38101;53.126;6.878;2023-05-10T12:33:24;9.82;;;6.45;;
52102;SDS011;38101;53.126;6.878;2023-05-10T12:35:53;9.00;;;6.50;;
52102;SDS011;38101;53.126;6.878;2023-05-10T12:38:24;7.55;;;5.82;;
52102;SDS011;38101;53.126;6.878;2023-05-10T12:41:01;10.00;;;6.47;;
52102;SDS011;38101;53.126;6.878;2023-05-10T12:43:28;9.73;;;6.70;;
52102;SDS011;38101;53.126;6.878;2023-05-10T12:45:54;8.18;;;5.75;;
52102;SDS011;38101;53.126;6.878;2023-05-10T12:48:20;8.43;;;5.43;;
52102;SDS011;38101;53.126;6.878;2023-05-10T12:50:47;7.35;;;4.88;;
52102;SDS011;38101;53.126;6.878;2023-05-10T12:53:13;8.43;;;6.13;;
52102;SDS011;38101;53.126;6.878;2023-05-10T12:55:41;10.38;;;6.80;;
52102;SDS011;38101;53.126;6.878;2023-05-10T12:58:07;9.50;;;6.70;;
52102;SDS011;38101;53.126;6.878;2023-05-10T13:00:32;8.73;;;5.70;;
52102;SDS011;38101;53.126;6.878;2023-05-10T13:02:58;8.70;;;6.47;;
52102;SDS011;38101;53.126;6.878;2023-05-10T13:05:24;9.95;;;5.85;;
52102;SDS011;38101;53.126;6.878;2023-05-10T13:07:50;7.13;;;5.57;;
52102;SDS011;38101;53.126;6.878;2023-05-10T13:10:15;9.52;;;6.35;;
52102;SDS011;38101;53.126;6.878;2023-05-10T13:12:41;8.02;;;5.68;;
52102;SDS011;38101;53.126;6.878;2023-05-10T13:15:07;9.50;;;6.13;;
52102;SDS011;38101;53.126;6.878;2023-05-10T13:17:33;8.70;;;6.57;;
52102;SDS011;38101;53.126;6.878;2023-05-10T13:19:59;9.43;;;6.57;;
52102;SDS011;38101;53.126;6.878;2023-05-10T13:22:24;8.43;;;6.97;;
52102;SDS011;38101;53.126;6.878;2023-05-10T13:24:50;9.30;;;6.65;;
52102;SDS011;38101;53.126;6.878;2023-05-10T13:27:16;10.20;;;6.65;;
52102;SDS011;38101;53.126;6.878;2023-05-10T13:29:41;9.52;;;6.45;;
52102;SDS011;38101;53.126;6.878;2023-05-10T13:32:07;11.50;;;6.90;;
52102;SDS011;38101;53.126;6.878;2023-05-10T13:34:33;8.43;;;6.47;;
52102;SDS011;38101;53.126;6.878;2023-05-10T13:37:00;11.95;;;7.25;;
52102;SDS011;38101;53.126;6.878;2023-05-10T13:39:26;8.38;;;5.57;;
52102;SDS011;38101;53.126;6.878;2023-05-10T13:41:52;9.75;;;6.05;;
52102;SDS011;38101;53.126;6.878;2023-05-10T13:44:18;7.88;;;5.78;;
52102;SDS011;38101;53.126;6.878;2023-05-10T13:46:45;8.05;;;5.38;;
52102;SDS011;38101;53.126;6.878;2023-05-10T13:49:11;9.07;;;5.75;;
52102;SDS011;38101;53.126;6.878;2023-05-10T13:51:37;8.80;;;5.45;;
52102;SDS011;38101;53.126;6.878;2023-05-10T13:54:03;9.48;;;6.20;;
52102;SDS011;38101;53.126;6.878;2023-05-10T13:56:28;8.70;;;5.80;;
52102;SDS011;38101;53.126;6.878;2023-05-10T13:58:56;8.07;;;5.55;;
52102;SDS011;38101;53.126;6.878;2023-05-10T14:01:22;7.95;;;5.20;;
52102;SDS011;38101;53.126;6.878;2023-05-10T14:03:48;7.90;;;5.57;;
52102;SDS011;38101;53.126;6.878;2023-05-10T14:06:14;9.75;;;5.70;;
52102;SDS011;38101;53.126;6.878;2023-05-10T14:08:40;8.30;;;5.70;;
52102;SDS011;38101;53.126;6.878;2023-05-10T14:11:06;8.55;;;5.70;;
52102;SDS011;38101;53.126;6.878;2023-05-10T14:13:31;10.68;;;6.07;;
52102;SDS011;38101;53.126;6.878;2023-05-10T14:15:57;8.93;;;5.82;;
52102;SDS011;38101;53.126;6.878;2023-05-10T14:18:26;8.15;;;6.20;;
52102;SDS011;38101;53.126;6.878;2023-05-10T14:20:52;9.75;;;6.10;;
52102;SDS011;38101;53.126;6.878;2023-05-10T14:23:17;8.60;;;5.90;;
52102;SDS011;38101;53.126;6.878;2023-05-10T14:25:48;8.95;;;6.53;;
52102;SDS011;38101;53.126;6.878;2023-05-10T14:28:15;9.13;;;6.55;;
52102;SDS011;38101;53.126;6.878;2023-05-10T14:30:42;10.05;;;7.10;;
52102;SDS011;38101;53.126;6.878;2023-05-10T14:33:08;10.45;;;7.22;;
52102;SDS011;38101;53.126;6.878;2023-05-10T14:35:35;8.85;;;6.55;;
52102;SDS011;38101;53.126;6.878;2023-05-10T14:38:01;9.80;;;6.60;;
52102;SDS011;38101;53.126;6.878;2023-05-10T14:40:28;11.10;;;6.68;;
52102;SDS011;38101;53.126;6.878;2023-05-10T14:42:55;8.85;;;6.47;;
52102;SDS011;38101;53.126;6.878;2023-05-10T14:45:21;9.63;;;6.60;;
52102;SDS011;38101;53.126;6.878;2023-05-10T14:47:48;10.65;;;6.68;;
52102;SDS011;38101;53.126;6.878;2023-05-10T14:50:14;9.10;;;6.97;;
52102;SDS011;38101;53.126;6.878;2023-05-10T14:52:42;10.50;;;6.75;;
52102;SDS011;38101;53.126;6.878;2023-05-10T14:55:08;8.27;;;6.38;;
52102;SDS011;38101;53.126;6.878;2023-05-10T14:57:34;10.60;;;7.00;;
52102;SDS011;38101;53.126;6.878;2023-05-10T15:00:00;11.95;;;7.22;;
52102;SDS011;38101;53.126;6.878;2023-05-10T15:02:25;10.30;;;7.63;;
52102;SDS011;38101;53.126;6.878;2023-05-10T15:04:51;12.52;;;7.55;;
52102;SDS011;38101;53.126;6.878;2023-05-10T15:07:17;9.82;;;7.35;;
52102;SDS011;38101;53.126;6.878;2023-05-10T15:09:44;10.25;;;7.70;;
52102;SDS011;38101;53.126;6.878;2023-05-10T15:12:10;12.05;;;7.32;;
52102;SDS011;38101;53.126;6.878;2023-05-10T15:14:36;10.50;;;7.20;;
52102;SDS011;38101;53.126;6.878;2023-05-10T15:17:05;10.18;;;7.35;;
52102;SDS011;38101;53.126;6.878;2023-05-10T15:19:32;10.35;;;7.25;;
52102;SDS011;38101;53.126;6.878;2023-05-10T15:21:58;10.18;;;7.50;;
52102;SDS011;38101;53.126;6.878;2023-05-10T15:24:24;11.25;;;7.28;;
52102;SDS011;38101;53.126;6.878;2023-05-10T15:26:50;11.55;;;7.30;;
52102;SDS011;38101;53.126;6.878;2023-05-10T15:29:16;11.00;;;7.55;;
52102;SDS011;38101;53.126;6.878;2023-05-10T15:31:48;11.48;;;7.75;;
52102;SDS011;38101;53.126;6.878;2023-05-10T15:34:14;12.65;;;7.88;;
52102;SDS011;38101;53.126;6.878;2023-05-10T15:36:41;11.18;;;7.68;;
52102;SDS011;38101;53.126;6.878;2023-05-10T15:39:06;11.02;;;7.65;;
52102;SDS011;38101;53.126;6.878;2023-05-10T15:41:34;11.90;;;7.88;;